createdAt,value
2017-07-19T00:00:17.249Z,0
2017-07-19T00:00:57.706Z,0
2017-07-19T00:01:38.169Z,0
2017-07-19T00:02:18.619Z,0
2017-07-19T00:02:59.077Z,0
2017-07-19T00:03:39.532Z,0
2017-07-19T00:04:19.980Z,0
2017-07-19T00:05:00.435Z,0
2017-07-19T00:05:40.912Z,0
2017-07-19T00:06:21.340Z,0
2017-07-19T00:07:01.799Z,0
2017-07-19T00:07:42.252Z,0
2017-07-19T00:08:22.707Z,0
2017-07-19T00:09:03.158Z,0
2017-07-19T00:09:43.616Z,0
2017-07-19T00:10:24.062Z,0
2017-07-19T00:11:04.530Z,0
2017-07-19T00:11:44.989Z,0
2017-07-19T00:12:25.440Z,0
2017-07-19T00:13:05.897Z,0
2017-07-19T00:13:46.351Z,0
2017-07-19T00:14:26.809Z,0
2017-07-19T00:15:07.257Z,0
2017-07-19T00:15:47.712Z,0
2017-07-19T00:16:28.161Z,0
2017-07-19T00:17:08.613Z,0
2017-07-19T00:17:49.062Z,0
2017-07-19T00:18:29.518Z,0
2017-07-19T00:19:09.971Z,0
2017-07-19T00:19:50.429Z,0
2017-07-19T00:20:30.889Z,0
2017-07-19T00:21:11.330Z,0
2017-07-19T00:21:51.780Z,0
2017-07-19T00:22:32.236Z,0
2017-07-19T00:23:12.697Z,0
2017-07-19T00:23:53.149Z,0
2017-07-19T00:24:33.596Z,0
2017-07-19T00:25:14.050Z,0
2017-07-19T00:25:54.505Z,0
2017-07-19T00:26:34.959Z,0
2017-07-19T00:27:15.414Z,0
2017-07-19T00:27:55.871Z,0
2017-07-19T00:28:36.318Z,0
2017-07-19T00:29:16.781Z,0
2017-07-19T00:29:57.236Z,0
2017-07-19T00:30:37.698Z,0
2017-07-19T00:31:18.147Z,0
2017-07-19T00:31:58.601Z,0
2017-07-19T00:32:39.056Z,0
2017-07-19T00:33:19.509Z,0
2017-07-19T00:33:59.969Z,0
2017-07-19T00:34:40.424Z,0
2017-07-19T00:35:20.878Z,0
2017-07-19T00:36:01.338Z,0
2017-07-19T00:36:41.796Z,0
2017-07-19T00:37:22.248Z,0
2017-07-19T00:38:02.705Z,0
2017-07-19T00:38:43.154Z,0
2017-07-19T00:39:23.601Z,0
2017-07-19T00:40:04.055Z,0
2017-07-19T00:40:44.508Z,0
2017-07-19T00:41:24.953Z,0
2017-07-19T00:42:05.407Z,0
2017-07-19T00:42:45.860Z,0
2017-07-19T00:43:26.310Z,0
2017-07-19T00:44:06.763Z,0
2017-07-19T00:44:47.218Z,0
2017-07-19T00:45:27.675Z,0
2017-07-19T00:46:08.130Z,0
2017-07-19T00:46:48.584Z,0
2017-07-19T00:47:29.040Z,0
2017-07-19T00:48:09.493Z,0
2017-07-19T00:48:49.944Z,0
2017-07-19T00:49:30.395Z,0
2017-07-19T00:50:10.846Z,0
2017-07-19T00:50:51.299Z,0
2017-07-19T00:51:31.756Z,0
2017-07-19T00:52:12.210Z,0
2017-07-19T00:52:52.659Z,0
2017-07-19T00:53:33.123Z,0
2017-07-19T00:54:13.586Z,0
2017-07-19T00:54:54.074Z,0
2017-07-19T00:55:34.529Z,0
2017-07-19T00:56:14.993Z,0
2017-07-19T00:56:55.443Z,0
2017-07-19T00:57:35.902Z,0
2017-07-19T00:58:16.365Z,0
2017-07-19T00:58:56.821Z,0
2017-07-19T00:59:37.273Z,0
2017-07-19T01:00:17.725Z,0
2017-07-19T01:00:58.179Z,0
2017-07-19T01:01:38.634Z,0
2017-07-19T01:02:19.092Z,0
2017-07-19T01:02:59.546Z,0
2017-07-19T01:03:39.998Z,0
2017-07-19T01:04:20.491Z,0
2017-07-19T01:05:00.946Z,0
2017-07-19T01:05:41.399Z,0
2017-07-19T01:06:21.852Z,0
2017-07-19T01:07:02.325Z,0
2017-07-19T01:07:42.762Z,0
2017-07-19T01:08:23.217Z,0
2017-07-19T01:09:03.675Z,0
2017-07-19T01:09:44.135Z,0
2017-07-19T01:10:24.587Z,0
2017-07-19T01:11:05.101Z,0
2017-07-19T01:11:45.562Z,0
2017-07-19T01:12:26.009Z,0
2017-07-19T01:13:06.469Z,0
2017-07-19T01:13:46.926Z,0
2017-07-19T01:14:27.358Z,0
2017-07-19T01:15:07.816Z,0
2017-07-19T01:15:48.266Z,0
2017-07-19T01:16:28.723Z,0
2017-07-19T01:17:09.174Z,0
2017-07-19T01:17:49.627Z,0
2017-07-19T01:18:30.084Z,0
2017-07-19T01:19:10.536Z,0
2017-07-19T01:19:50.992Z,0
2017-07-19T01:20:31.445Z,0
2017-07-19T01:21:11.894Z,0
2017-07-19T01:21:52.342Z,0
2017-07-19T01:22:32.791Z,0
2017-07-19T01:23:13.251Z,0
2017-07-19T01:23:53.704Z,0
2017-07-19T01:24:34.152Z,0
2017-07-19T01:25:14.605Z,0
2017-07-19T01:25:55.052Z,0
2017-07-19T01:26:35.509Z,0
2017-07-19T01:27:15.959Z,0
2017-07-19T01:27:56.412Z,0
2017-07-19T01:28:36.870Z,0
2017-07-19T01:29:17.325Z,0
2017-07-19T01:29:57.782Z,0
2017-07-19T01:30:38.219Z,0
2017-07-19T01:31:18.655Z,0
2017-07-19T01:31:59.118Z,0
2017-07-19T01:32:39.662Z,0
2017-07-19T01:33:20.015Z,0
2017-07-19T01:34:00.468Z,0
2017-07-19T01:34:40.920Z,0
2017-07-19T01:35:21.378Z,0
2017-07-19T01:36:01.840Z,0
2017-07-19T01:36:42.282Z,0
2017-07-19T01:37:22.739Z,0
2017-07-19T01:38:03.193Z,0
2017-07-19T01:38:43.650Z,0
2017-07-19T01:39:24.103Z,0
2017-07-19T01:40:04.559Z,0
2017-07-19T01:40:45.016Z,0
2017-07-19T01:41:25.471Z,0
2017-07-19T01:42:05.930Z,0
2017-07-19T01:42:46.379Z,0
2017-07-19T01:43:26.842Z,0
2017-07-19T01:44:07.291Z,0
2017-07-19T01:44:47.746Z,0
2017-07-19T01:45:28.200Z,0
2017-07-19T01:46:08.657Z,0
2017-07-19T01:46:49.114Z,0
2017-07-19T01:47:29.574Z,0
2017-07-19T01:48:10.027Z,0
2017-07-19T01:48:50.524Z,0
2017-07-19T01:49:30.984Z,0
2017-07-19T01:50:11.438Z,0
2017-07-19T01:50:51.892Z,0
2017-07-19T01:51:32.345Z,0
2017-07-19T01:52:12.808Z,0
2017-07-19T01:52:53.267Z,0
2017-07-19T01:53:33.722Z,0
2017-07-19T01:54:14.179Z,0
2017-07-19T01:54:54.634Z,0
2017-07-19T01:55:35.087Z,0
2017-07-19T01:56:15.544Z,0
2017-07-19T01:56:55.996Z,0
2017-07-19T01:57:36.450Z,0
2017-07-19T01:58:16.905Z,0
2017-07-19T01:58:57.359Z,0
2017-07-19T01:59:37.857Z,0
2017-07-19T02:00:18.313Z,0
2017-07-19T02:00:58.768Z,0
2017-07-19T02:01:39.221Z,0
2017-07-19T02:02:19.674Z,0
2017-07-19T02:03:00.131Z,0
2017-07-19T02:03:40.584Z,0
2017-07-19T02:04:21.039Z,0
2017-07-19T02:05:01.499Z,0
2017-07-19T02:05:41.952Z,0
2017-07-19T02:06:22.413Z,0
2017-07-19T02:07:02.870Z,0
2017-07-19T02:07:43.327Z,0
2017-07-19T02:08:23.783Z,0
2017-07-19T02:09:04.236Z,0
2017-07-19T02:09:44.692Z,0
2017-07-19T02:10:25.155Z,0
2017-07-19T02:11:05.608Z,0
2017-07-19T02:11:46.067Z,0
2017-07-19T02:12:26.518Z,0
2017-07-19T02:13:06.977Z,0
2017-07-19T02:13:47.430Z,0
2017-07-19T02:14:27.888Z,0
2017-07-19T02:15:08.334Z,0
2017-07-19T02:15:48.797Z,0
2017-07-19T02:16:29.250Z,0
2017-07-19T02:17:09.708Z,0
2017-07-19T02:17:50.165Z,0
2017-07-19T02:18:30.618Z,0
2017-07-19T02:19:11.070Z,0
2017-07-19T02:19:51.521Z,0
2017-07-19T02:20:31.977Z,0
2017-07-19T02:21:12.435Z,0
2017-07-19T02:21:52.894Z,0
2017-07-19T02:22:33.347Z,0
2017-07-19T02:23:13.803Z,0
2017-07-19T02:23:54.263Z,0
2017-07-19T02:24:34.715Z,0
2017-07-19T02:25:15.148Z,0
2017-07-19T02:25:55.602Z,0
2017-07-19T02:26:36.057Z,0
2017-07-19T02:27:16.512Z,0
2017-07-19T02:27:56.965Z,0
2017-07-19T02:28:37.424Z,0
2017-07-19T02:29:17.883Z,0
2017-07-19T02:29:58.336Z,0
2017-07-19T02:30:38.797Z,0
2017-07-19T02:31:19.252Z,0
2017-07-19T02:31:59.712Z,0
2017-07-19T02:32:40.167Z,0
2017-07-19T02:33:20.624Z,0
2017-07-19T02:34:01.082Z,0
2017-07-19T02:34:41.541Z,0
2017-07-19T02:35:21.995Z,0
2017-07-19T02:36:02.443Z,0
2017-07-19T02:36:42.897Z,0
2017-07-19T02:37:23.357Z,0
2017-07-19T02:38:03.821Z,0
2017-07-19T02:38:44.273Z,0
2017-07-19T02:39:24.726Z,0
2017-07-19T02:40:05.186Z,0
2017-07-19T02:40:45.639Z,0
2017-07-19T02:41:26.096Z,0
2017-07-19T02:42:06.555Z,0
2017-07-19T02:42:47.009Z,0
2017-07-19T02:43:27.472Z,0
2017-07-19T02:44:07.916Z,0
2017-07-19T02:44:48.416Z,0
2017-07-19T02:45:28.874Z,0
2017-07-19T02:46:09.330Z,0
2017-07-19T02:46:49.787Z,0
2017-07-19T02:47:30.245Z,0
2017-07-19T02:48:10.707Z,0
2017-07-19T02:48:51.154Z,0
2017-07-19T02:49:31.606Z,0
2017-07-19T02:50:12.061Z,0
2017-07-19T02:50:52.508Z,0
2017-07-19T02:51:32.978Z,0
2017-07-19T02:52:13.435Z,0
2017-07-19T02:52:53.869Z,0
2017-07-19T02:53:34.322Z,0
2017-07-19T02:54:14.778Z,0
2017-07-19T02:54:55.234Z,0
2017-07-19T02:55:35.691Z,0
2017-07-19T02:56:16.147Z,0
2017-07-19T02:56:56.604Z,0
2017-07-19T02:57:37.058Z,0
2017-07-19T02:58:17.551Z,0
2017-07-19T02:58:57.988Z,0
2017-07-19T02:59:38.442Z,0
2017-07-19T03:00:18.896Z,0
2017-07-19T03:00:59.345Z,0
2017-07-19T03:01:39.798Z,0
2017-07-19T03:02:20.277Z,0
2017-07-19T03:03:00.723Z,0
2017-07-19T03:03:41.181Z,0
2017-07-19T03:04:21.640Z,0
2017-07-19T03:05:02.097Z,0
2017-07-19T03:05:42.548Z,0
2017-07-19T03:06:23.011Z,0
2017-07-19T03:07:03.515Z,0
2017-07-19T03:07:43.969Z,0
2017-07-19T03:08:24.427Z,0
2017-07-19T03:09:04.884Z,0
2017-07-19T03:09:45.354Z,0
2017-07-19T03:10:25.801Z,0
2017-07-19T03:11:06.252Z,0
2017-07-19T03:11:46.703Z,0
2017-07-19T03:12:27.159Z,0
2017-07-19T03:13:07.622Z,0
2017-07-19T03:13:48.101Z,0
2017-07-19T03:14:28.536Z,0
2017-07-19T03:15:12.994Z,0
2017-07-19T03:15:53.464Z,0
2017-07-19T03:16:33.914Z,0
2017-07-19T03:17:14.371Z,0
2017-07-19T03:17:54.828Z,0
2017-07-19T03:18:35.280Z,0
2017-07-19T03:19:15.735Z,0
2017-07-19T03:19:56.186Z,0
2017-07-19T03:20:36.640Z,0
2017-07-19T03:21:17.096Z,0
2017-07-19T03:21:57.554Z,0
2017-07-19T03:22:38.012Z,0
2017-07-19T03:23:18.472Z,0
2017-07-19T03:23:58.924Z,0
2017-07-19T03:24:39.375Z,0
2017-07-19T03:25:19.831Z,0
2017-07-19T03:26:00.283Z,0
2017-07-19T03:26:40.738Z,0
2017-07-19T03:27:21.192Z,0
2017-07-19T03:28:01.667Z,0
2017-07-19T03:28:42.101Z,0
2017-07-19T03:29:22.559Z,0
2017-07-19T03:30:03.016Z,0
2017-07-19T03:30:43.471Z,0
2017-07-19T03:31:23.930Z,0
2017-07-19T03:32:04.386Z,0
2017-07-19T03:32:44.844Z,0
2017-07-19T03:33:25.323Z,0
2017-07-19T03:34:05.780Z,0
2017-07-19T03:34:46.232Z,0
2017-07-19T03:35:26.692Z,0
2017-07-19T03:36:07.148Z,0
2017-07-19T03:36:47.606Z,0
2017-07-19T03:37:28.065Z,0
2017-07-19T03:38:08.520Z,0
2017-07-19T03:38:48.976Z,0
2017-07-19T03:39:29.440Z,0
2017-07-19T03:40:09.886Z,0
2017-07-19T03:40:50.344Z,0
2017-07-19T03:41:30.799Z,0
2017-07-19T03:42:11.258Z,0
2017-07-19T03:42:51.713Z,0
2017-07-19T03:43:32.169Z,0
2017-07-19T03:44:12.628Z,0
2017-07-19T03:44:53.080Z,0
2017-07-19T03:45:33.538Z,0
2017-07-19T03:46:13.976Z,0
2017-07-19T03:46:54.431Z,0
2017-07-19T03:47:34.887Z,0
2017-07-19T03:48:15.370Z,0
2017-07-19T03:48:55.826Z,0
2017-07-19T03:49:36.282Z,0
2017-07-19T03:50:16.738Z,0
2017-07-19T03:50:57.189Z,0
2017-07-19T03:51:37.645Z,0
2017-07-19T03:52:18.067Z,0
2017-07-19T03:52:58.527Z,0
2017-07-19T03:53:38.972Z,0
2017-07-19T03:54:19.422Z,0
2017-07-19T03:54:59.869Z,0
2017-07-19T03:55:40.329Z,0
2017-07-19T03:58:13.617Z,0
2017-07-19T03:58:54.075Z,0
2017-07-19T03:59:34.529Z,0
2017-07-19T04:00:14.984Z,0
2017-07-19T04:00:55.434Z,0
2017-07-19T04:01:35.886Z,0
2017-07-19T04:02:16.334Z,0
2017-07-19T04:02:56.834Z,0
2017-07-19T04:03:37.277Z,0
2017-07-19T04:04:17.747Z,0
2017-07-19T04:04:58.199Z,0
2017-07-19T04:05:38.653Z,0
2017-07-19T04:06:19.107Z,0
2017-07-19T04:06:59.560Z,0
2017-07-19T04:07:40.016Z,0
2017-07-19T04:08:20.467Z,0
2017-07-19T04:09:00.921Z,0
2017-07-19T04:09:41.373Z,0
2017-07-19T04:10:21.820Z,0
2017-07-19T04:11:02.272Z,0
2017-07-19T04:11:42.727Z,0
2017-07-19T04:12:23.180Z,0
2017-07-19T04:13:03.648Z,0
2017-07-19T04:13:44.092Z,0
2017-07-19T04:14:24.552Z,0
2017-07-19T04:15:05.009Z,5
2017-07-19T04:15:45.464Z,5
2017-07-19T04:16:25.912Z,5
2017-07-19T04:17:06.367Z,5
2017-07-19T04:17:46.825Z,5
2017-07-19T04:18:27.276Z,5
2017-07-19T04:19:07.736Z,5
2017-07-19T04:19:48.190Z,5
2017-07-19T04:20:28.650Z,5
2017-07-19T04:21:09.105Z,5
2017-07-19T04:21:49.560Z,5
2017-07-19T04:22:30.020Z,5
2017-07-19T04:23:10.473Z,5
2017-07-19T04:23:50.938Z,5
2017-07-19T04:24:31.382Z,5
2017-07-19T04:25:11.939Z,5
2017-07-19T04:25:52.397Z,5
2017-07-19T04:26:32.864Z,5
2017-07-19T04:27:13.306Z,5
2017-07-19T04:27:53.756Z,5
2017-07-19T04:28:34.210Z,5
2017-07-19T04:29:14.667Z,5
2017-07-19T04:29:55.131Z,5
2017-07-19T04:30:35.572Z,5
2017-07-19T04:31:16.028Z,5
2017-07-19T04:31:56.487Z,5
2017-07-19T04:32:36.933Z,5
2017-07-19T04:33:17.390Z,5
2017-07-19T04:33:57.874Z,5
2017-07-19T04:34:38.326Z,5
2017-07-19T04:35:18.776Z,5
2017-07-19T04:35:59.234Z,5
2017-07-19T04:36:39.686Z,5
2017-07-19T04:37:20.143Z,5
2017-07-19T04:38:00.595Z,5
2017-07-19T04:38:41.052Z,5
2017-07-19T04:39:21.502Z,5
2017-07-19T04:40:01.969Z,5
2017-07-19T04:40:42.419Z,5
2017-07-19T04:41:22.879Z,5
2017-07-19T04:42:03.334Z,5
2017-07-19T04:42:43.793Z,5
2017-07-19T04:43:24.245Z,5
2017-07-19T04:44:04.698Z,5
2017-07-19T04:44:45.163Z,5
2017-07-19T04:45:25.616Z,5
2017-07-19T04:46:06.076Z,5
2017-07-19T04:46:46.532Z,5
2017-07-19T04:47:26.983Z,5
2017-07-19T04:48:07.438Z,5
2017-07-19T04:48:47.886Z,5
2017-07-19T04:49:28.340Z,5
2017-07-19T04:50:08.795Z,5
2017-07-19T04:50:49.252Z,5
2017-07-19T04:51:29.705Z,5
2017-07-19T04:52:10.164Z,5
2017-07-19T04:52:50.620Z,5
2017-07-19T04:53:31.096Z,5
2017-07-19T04:54:11.545Z,10
2017-07-19T04:54:51.997Z,10
2017-07-19T04:55:32.450Z,10
2017-07-19T04:56:12.905Z,10
2017-07-19T04:56:53.365Z,10
2017-07-19T04:57:33.823Z,10
2017-07-19T04:58:14.280Z,10
2017-07-19T04:58:54.730Z,10
2017-07-19T04:59:35.188Z,10
2017-07-19T05:00:15.635Z,10
2017-07-19T05:00:56.083Z,10
2017-07-19T05:01:36.537Z,10
2017-07-19T05:02:16.991Z,10
2017-07-19T05:02:57.448Z,10
2017-07-19T05:03:37.896Z,10
2017-07-19T05:04:18.349Z,10
2017-07-19T05:04:58.803Z,10
2017-07-19T05:05:39.255Z,10
2017-07-19T05:06:19.714Z,15
2017-07-19T05:07:00.166Z,15
2017-07-19T05:07:40.674Z,15
2017-07-19T05:08:21.135Z,15
2017-07-19T05:09:01.587Z,15
2017-07-19T05:09:42.046Z,15
2017-07-19T05:10:22.499Z,15
2017-07-19T05:11:02.958Z,15
2017-07-19T05:11:43.423Z,15
2017-07-19T05:12:23.878Z,15
2017-07-19T05:13:04.335Z,15
2017-07-19T05:13:44.794Z,15
2017-07-19T05:14:25.262Z,15
2017-07-19T05:15:05.713Z,15
2017-07-19T05:15:46.168Z,15
2017-07-19T05:16:26.622Z,15
2017-07-19T05:17:07.075Z,15
2017-07-19T05:17:47.529Z,15
2017-07-19T05:18:27.983Z,15
2017-07-19T05:19:08.442Z,15
2017-07-19T05:19:48.902Z,15
2017-07-19T05:20:29.357Z,15
2017-07-19T05:21:09.809Z,15
2017-07-19T05:21:50.265Z,15
2017-07-19T05:22:30.726Z,15
2017-07-19T05:23:11.177Z,15
2017-07-19T05:23:51.628Z,15
2017-07-19T05:24:32.079Z,15
2017-07-19T05:25:12.537Z,15
2017-07-19T05:25:53.004Z,15
2017-07-19T05:26:33.453Z,15
2017-07-19T05:27:13.903Z,15
2017-07-19T05:27:54.357Z,15
2017-07-19T05:28:34.819Z,15
2017-07-19T05:29:15.263Z,15
2017-07-19T05:29:55.720Z,15
2017-07-19T05:30:36.175Z,15
2017-07-19T05:31:16.631Z,15
2017-07-19T05:31:57.094Z,15
2017-07-19T05:32:37.564Z,15
2017-07-19T05:33:17.985Z,20
2017-07-19T05:33:58.441Z,20
2017-07-19T05:34:38.893Z,20
2017-07-19T05:35:19.348Z,20
2017-07-19T05:35:59.776Z,20
2017-07-19T05:36:40.210Z,20
2017-07-19T05:37:20.676Z,20
2017-07-19T05:38:01.109Z,20
2017-07-19T05:38:41.572Z,20
2017-07-19T05:39:22.031Z,20
2017-07-19T05:40:02.473Z,20
2017-07-19T05:40:42.917Z,20
2017-07-19T05:41:23.370Z,20
2017-07-19T05:42:03.822Z,20
2017-07-19T05:42:44.316Z,20
2017-07-19T05:43:24.755Z,20
2017-07-19T05:44:05.209Z,20
2017-07-19T05:44:45.665Z,20
2017-07-19T05:45:26.132Z,20
2017-07-19T05:46:06.581Z,25
2017-07-19T05:46:47.041Z,25
2017-07-19T05:47:27.493Z,25
2017-07-19T05:48:07.951Z,25
2017-07-19T05:48:48.404Z,25
2017-07-19T05:49:28.868Z,25
2017-07-19T05:50:09.318Z,25
2017-07-19T05:50:49.765Z,25
2017-07-19T05:51:30.220Z,25
2017-07-19T05:52:10.669Z,25
2017-07-19T05:52:51.115Z,25
2017-07-19T05:53:31.567Z,25
2017-07-19T05:54:12.010Z,25
2017-07-19T05:54:52.449Z,25
2017-07-19T05:55:32.902Z,25
2017-07-19T05:56:13.345Z,25
2017-07-19T05:56:53.789Z,25
2017-07-19T05:57:34.221Z,25
2017-07-19T05:58:14.677Z,25
2017-07-19T05:58:55.215Z,25
2017-07-19T05:59:35.718Z,25
2017-07-19T06:00:16.176Z,20
2017-07-19T06:00:56.646Z,20
2017-07-19T06:01:36.989Z,25
2017-07-19T06:02:17.429Z,25
2017-07-19T06:02:57.824Z,25
2017-07-19T06:03:38.201Z,25
2017-07-19T06:04:18.649Z,25
2017-07-19T06:04:59.089Z,25
2017-07-19T06:07:27.339Z,25
2017-07-19T06:08:07.771Z,30
2017-07-19T06:08:48.224Z,30
2017-07-19T06:09:28.676Z,30
2017-07-19T06:10:09.115Z,30
2017-07-19T06:10:49.595Z,30
2017-07-19T06:11:30.050Z,30
2017-07-19T06:12:10.492Z,30
2017-07-19T06:12:51.090Z,30
2017-07-19T06:13:31.578Z,30
2017-07-19T06:14:12.034Z,30
2017-07-19T06:14:52.446Z,30
2017-07-19T06:15:32.968Z,30
2017-07-19T06:16:13.394Z,30
2017-07-19T06:16:53.763Z,30
2017-07-19T06:17:34.179Z,30
2017-07-19T06:18:14.627Z,30
2017-07-19T06:20:52.825Z,30
2017-07-19T06:21:33.270Z,30
2017-07-19T06:22:13.768Z,30
2017-07-19T06:22:54.152Z,30
2017-07-19T06:23:34.628Z,30
2017-07-19T06:24:15.111Z,30
2017-07-19T06:24:55.520Z,30
2017-07-19T06:25:35.953Z,30
2017-07-19T06:26:16.384Z,30
2017-07-19T06:26:56.795Z,35
2017-07-19T06:27:37.254Z,35
2017-07-19T06:30:05.513Z,35
2017-07-19T06:30:45.926Z,35
2017-07-19T06:31:26.374Z,35
2017-07-19T06:32:06.817Z,35
2017-07-19T06:32:47.249Z,35
2017-07-19T06:33:27.702Z,35
2017-07-19T06:34:08.131Z,35
2017-07-19T06:34:48.566Z,35
2017-07-19T06:37:16.576Z,35
2017-07-19T06:37:57.021Z,35
2017-07-19T06:38:37.468Z,35
2017-07-19T06:39:17.962Z,35
2017-07-19T06:39:58.378Z,35
2017-07-19T06:42:16.300Z,35
2017-07-19T06:42:56.757Z,35
2017-07-19T06:43:37.177Z,35
2017-07-19T06:44:17.669Z,35
2017-07-19T06:44:58.061Z,35
2017-07-19T06:45:38.487Z,35
2017-07-19T06:46:18.968Z,35
2017-07-19T06:46:59.422Z,35
2017-07-19T06:47:39.861Z,35
2017-07-19T06:48:20.307Z,40
2017-07-19T06:49:00.848Z,40
2017-07-19T06:49:41.382Z,40
2017-07-19T06:50:21.784Z,40
2017-07-19T06:51:02.290Z,40
2017-07-19T06:51:42.777Z,40
2017-07-19T06:52:23.179Z,40
2017-07-19T06:53:03.619Z,40
2017-07-19T06:53:44.120Z,40
2017-07-19T06:54:24.591Z,40
2017-07-19T06:55:05.069Z,40
2017-07-19T06:55:45.551Z,40
2017-07-19T06:56:26.007Z,40
2017-07-19T06:57:06.453Z,40
2017-07-19T06:57:46.902Z,40
2017-07-19T06:58:27.360Z,40
2017-07-19T06:59:07.817Z,40
2017-07-19T06:59:48.267Z,40
2017-07-19T07:00:28.722Z,40
2017-07-19T07:01:09.174Z,40
2017-07-19T07:01:49.626Z,40
2017-07-19T07:02:30.073Z,40
2017-07-19T07:03:10.524Z,40
2017-07-19T07:03:50.956Z,45
2017-07-19T07:04:31.383Z,45
2017-07-19T07:05:11.814Z,45
2017-07-19T07:05:52.245Z,45
2017-07-19T07:06:32.709Z,45
2017-07-19T07:07:13.167Z,45
2017-07-19T07:07:53.564Z,45
2017-07-19T07:08:33.996Z,45
2017-07-19T07:09:14.414Z,45
2017-07-19T07:09:54.842Z,45
2017-07-19T07:10:35.281Z,45
2017-07-19T07:11:15.654Z,45
2017-07-19T07:11:56.078Z,45
2017-07-19T07:12:36.549Z,45
2017-07-19T07:13:16.905Z,45
2017-07-19T07:13:57.389Z,45
2017-07-19T07:14:37.847Z,45
2017-07-19T07:16:56.056Z,45
2017-07-19T07:17:36.507Z,50
2017-07-19T07:18:16.961Z,50
2017-07-19T07:18:57.396Z,50
2017-07-19T07:19:37.849Z,50
2017-07-19T07:20:18.297Z,50
2017-07-19T07:20:58.746Z,50
2017-07-19T07:21:39.159Z,50
2017-07-19T07:22:19.618Z,50
2017-07-19T07:22:59.997Z,50
2017-07-19T07:23:40.411Z,50
2017-07-19T07:24:20.868Z,50
2017-07-19T07:25:01.215Z,50
2017-07-19T07:25:41.646Z,50
2017-07-19T07:26:22.092Z,50
2017-07-19T07:29:00.449Z,55
2017-07-19T07:29:40.879Z,55
2017-07-19T07:30:21.324Z,55
2017-07-19T07:31:01.771Z,55
2017-07-19T07:31:42.285Z,55
2017-07-19T07:32:22.712Z,55
2017-07-19T07:33:03.186Z,55
2017-07-19T07:33:43.657Z,55
2017-07-19T07:36:01.624Z,55
2017-07-19T07:36:42.067Z,55
2017-07-19T07:37:22.522Z,60
2017-07-19T07:38:02.976Z,60
2017-07-19T07:38:43.455Z,60
2017-07-19T07:39:23.880Z,60
2017-07-19T07:40:04.339Z,60
2017-07-19T07:40:44.761Z,60
2017-07-19T07:41:25.272Z,60
2017-07-19T07:42:05.727Z,60
2017-07-19T07:42:46.183Z,60
2017-07-19T07:43:26.718Z,60
2017-07-19T07:44:07.169Z,60
2017-07-19T07:44:47.619Z,60
2017-07-19T07:45:28.078Z,60
2017-07-19T07:46:08.513Z,65
2017-07-19T07:46:48.968Z,65
2017-07-19T07:47:29.425Z,65
2017-07-19T07:48:09.877Z,65
2017-07-19T07:48:50.334Z,65
2017-07-19T07:49:30.768Z,65
2017-07-19T07:50:11.224Z,65
2017-07-19T07:50:51.676Z,65
2017-07-19T07:51:32.128Z,65
2017-07-19T07:52:12.585Z,65
2017-07-19T07:52:53.040Z,65
2017-07-19T07:53:33.494Z,65
2017-07-19T07:54:13.961Z,70
2017-07-19T07:54:54.416Z,70
2017-07-19T07:55:34.864Z,70
2017-07-19T07:56:15.312Z,70
2017-07-19T07:56:55.773Z,70
2017-07-19T07:57:36.228Z,70
2017-07-19T07:58:16.679Z,70
2017-07-19T07:58:57.180Z,70
2017-07-19T07:59:37.641Z,70
2017-07-19T08:00:18.105Z,70
2017-07-19T08:00:58.580Z,70
2017-07-19T08:01:39.037Z,70
2017-07-19T08:02:19.497Z,70
2017-07-19T08:02:59.949Z,70
2017-07-19T08:03:40.404Z,70
2017-07-19T08:04:20.855Z,75
2017-07-19T08:05:01.321Z,75
2017-07-19T08:05:41.772Z,75
2017-07-19T08:06:22.224Z,75
2017-07-19T08:07:02.675Z,75
2017-07-19T08:07:43.129Z,75
2017-07-19T08:08:23.583Z,75
2017-07-19T08:09:04.034Z,75
2017-07-19T08:09:44.486Z,75
2017-07-19T08:10:24.949Z,75
2017-07-19T08:11:05.398Z,75
2017-07-19T08:11:45.848Z,75
2017-07-19T08:12:26.304Z,75
2017-07-19T08:13:06.820Z,75
2017-07-19T08:13:47.270Z,75
2017-07-19T08:14:27.720Z,75
2017-07-19T08:15:08.172Z,75
2017-07-19T08:15:48.627Z,80
2017-07-19T08:16:29.082Z,80
2017-07-19T08:17:09.528Z,80
2017-07-19T08:17:49.975Z,80
2017-07-19T08:18:30.431Z,80
2017-07-19T08:19:10.887Z,80
2017-07-19T08:19:51.350Z,80
2017-07-19T08:20:31.803Z,80
2017-07-19T08:21:12.261Z,80
2017-07-19T08:21:52.718Z,80
2017-07-19T08:22:33.190Z,80
2017-07-19T08:23:13.641Z,80
2017-07-19T08:23:54.098Z,80
2017-07-19T08:24:34.540Z,80
2017-07-19T08:25:14.992Z,80
2017-07-19T08:25:55.450Z,80
2017-07-19T08:26:35.905Z,80
2017-07-19T08:27:16.353Z,85
2017-07-19T08:27:56.814Z,85
2017-07-19T08:28:37.316Z,85
2017-07-19T08:29:17.722Z,85
2017-07-19T08:29:58.148Z,85
2017-07-19T08:30:38.612Z,85
2017-07-19T08:31:19.065Z,85
2017-07-19T08:31:59.529Z,85
2017-07-19T08:32:39.982Z,85
2017-07-19T08:33:20.436Z,85
2017-07-19T08:34:00.892Z,85
2017-07-19T08:34:41.341Z,85
2017-07-19T08:35:21.874Z,85
2017-07-19T08:36:02.328Z,85
2017-07-19T08:36:42.788Z,85
2017-07-19T08:37:23.244Z,85
2017-07-19T08:38:03.711Z,85
2017-07-19T08:38:44.160Z,85
2017-07-19T08:39:24.617Z,90
2017-07-19T08:40:05.073Z,90
2017-07-19T08:40:45.546Z,90
2017-07-19T08:41:26.006Z,90
2017-07-19T08:42:06.435Z,90
2017-07-19T08:42:46.882Z,90
2017-07-19T08:43:27.365Z,90
2017-07-19T08:44:07.823Z,90
2017-07-19T08:44:48.287Z,90
2017-07-19T08:45:28.728Z,90
2017-07-19T08:46:09.184Z,90
2017-07-19T08:46:49.642Z,90
2017-07-19T08:47:30.171Z,90
2017-07-19T08:48:10.633Z,90
2017-07-19T08:48:51.088Z,90
2017-07-19T08:49:31.638Z,90
2017-07-19T08:50:12.048Z,90
2017-07-19T08:50:52.510Z,90
2017-07-19T08:51:33.137Z,90
2017-07-19T08:52:13.589Z,95
2017-07-19T08:52:54.292Z,95
2017-07-19T08:53:34.466Z,95
2017-07-19T08:54:14.921Z,95
2017-07-19T08:54:55.374Z,95
2017-07-19T08:55:35.896Z,95
2017-07-19T08:56:16.397Z,95
2017-07-19T08:56:56.847Z,95
2017-07-19T08:57:37.294Z,95
2017-07-19T08:58:17.740Z,95
2017-07-19T08:58:58.196Z,95
2017-07-19T08:59:38.657Z,95
2017-07-19T09:00:19.125Z,95
2017-07-19T09:00:59.570Z,95
2017-07-19T09:01:40.040Z,95
2017-07-19T09:02:20.499Z,95
2017-07-19T09:03:00.944Z,95
2017-07-19T09:03:41.391Z,95
2017-07-19T09:04:21.846Z,95
2017-07-19T09:05:02.297Z,95
2017-07-19T09:05:42.758Z,95
2017-07-19T09:06:23.215Z,100
2017-07-19T09:07:03.663Z,100
2017-07-19T09:07:44.216Z,100
2017-07-19T09:08:24.885Z,100
2017-07-19T09:09:05.340Z,100
2017-07-19T09:09:45.790Z,100
2017-07-19T09:10:26.256Z,100
2017-07-19T09:11:06.698Z,100
2017-07-19T09:11:47.154Z,100
2017-07-19T09:12:27.612Z,100
2017-07-19T09:13:08.069Z,100
2017-07-19T09:13:48.539Z,100
2017-07-19T09:14:29.000Z,100
2017-07-19T09:15:09.464Z,100
2017-07-19T09:15:49.975Z,100
2017-07-19T09:16:30.395Z,100
2017-07-19T09:17:10.846Z,100
2017-07-19T09:17:51.310Z,100
2017-07-19T09:18:31.756Z,100
2017-07-19T09:19:12.214Z,100
2017-07-19T09:19:52.664Z,100
2017-07-19T09:20:33.107Z,100
2017-07-19T09:21:13.565Z,100
2017-07-19T09:21:54.017Z,100
2017-07-19T09:22:34.465Z,100
2017-07-19T09:23:14.904Z,100
2017-07-19T09:23:55.353Z,100
2017-07-19T09:24:35.805Z,100
2017-07-19T09:25:16.253Z,100
2017-07-19T09:25:56.700Z,100
2017-07-19T09:26:37.157Z,105
2017-07-19T09:27:17.623Z,105
2017-07-19T09:27:58.062Z,105
2017-07-19T09:28:38.531Z,105
2017-07-19T09:29:18.981Z,105
2017-07-19T09:29:59.439Z,105
2017-07-19T09:30:39.898Z,105
2017-07-19T09:31:20.361Z,105
2017-07-19T09:32:00.809Z,105
2017-07-19T09:32:41.270Z,105
2017-07-19T09:33:21.721Z,105
2017-07-19T09:34:02.167Z,105
2017-07-19T09:34:42.625Z,105
2017-07-19T09:35:23.073Z,105
2017-07-19T09:36:03.522Z,105
2017-07-19T09:36:43.976Z,105
2017-07-19T09:37:24.434Z,105
2017-07-19T09:38:04.887Z,105
2017-07-19T09:40:33.653Z,105
2017-07-19T09:41:14.081Z,105
2017-07-19T09:41:54.530Z,105
2017-07-19T09:42:34.974Z,105
2017-07-19T09:43:15.436Z,110
2017-07-19T09:43:55.913Z,110
2017-07-19T09:44:36.350Z,110
2017-07-19T09:45:16.796Z,110
2017-07-19T09:45:57.250Z,110
2017-07-19T09:46:37.701Z,95
2017-07-19T09:47:18.156Z,110
2017-07-19T09:47:58.601Z,110
2017-07-19T09:48:39.055Z,75
2017-07-19T09:49:19.493Z,60
2017-07-19T09:49:59.940Z,75
2017-07-19T09:50:40.402Z,80
2017-07-19T09:51:20.851Z,75
2017-07-19T09:52:01.312Z,95
2017-07-19T09:52:41.768Z,110
2017-07-19T09:53:22.214Z,110
2017-07-19T09:54:02.670Z,110
2017-07-19T09:54:43.124Z,110
2017-07-19T09:55:23.572Z,110
2017-07-19T09:56:04.030Z,110
2017-07-19T09:56:44.493Z,110
2017-07-19T09:57:24.934Z,110
2017-07-19T09:58:05.390Z,110
2017-07-19T09:58:45.852Z,110
2017-07-19T09:59:26.301Z,110
2017-07-19T10:00:06.755Z,110
2017-07-19T10:00:47.207Z,110
2017-07-19T10:01:27.662Z,110
2017-07-19T10:02:08.108Z,110
2017-07-19T10:02:48.551Z,110
2017-07-19T10:03:29.004Z,110